createdAt,value
2023-04-16T00:00:43.423Z,98727.69
2023-04-16T00:03:10.884Z,98722.00
2023-04-16T00:05:39.426Z,98723.56
2023-04-16T00:08:07.144Z,98721.63
2023-04-16T00:10:37.677Z,98726.84
2023-04-16T00:13:04.874Z,98728.06
2023-04-16T00:15:32.027Z,98718.13
2023-04-16T00:18:00.605Z,98720.25
2023-04-16T00:20:28.044Z,98725.19
2023-04-16T00:22:55.479Z,98715.78
2023-04-16T00:25:23.254Z,98725.47
2023-04-16T00:27:50.838Z,98729.47
2023-04-16T00:30:18.344Z,98728.25
2023-04-16T00:32:45.782Z,98727.06
2023-04-16T00:35:13.511Z,98732.91
2023-04-16T00:37:40.853Z,98733.81
2023-04-16T00:40:08.897Z,98734.59
2023-04-16T00:42:41.640Z,98729.72
2023-04-16T00:45:11.626Z,98735.53
2023-04-16T00:47:39.596Z,98736.31
2023-04-16T00:50:08.262Z,98735.53
2023-04-16T00:52:35.934Z,98736.06
2023-04-16T00:55:03.570Z,98731.59
2023-04-16T00:57:31.059Z,98737.81
2023-04-16T00:59:58.901Z,98730.50
2023-04-16T01:02:26.803Z,98732.09
2023-04-16T01:04:55.257Z,98732.66
2023-04-16T01:07:22.588Z,98729.63
2023-04-16T01:09:50.178Z,98738.31
2023-04-16T01:12:17.436Z,98736.47
2023-04-16T01:14:44.902Z,98734.34
2023-04-16T01:17:12.260Z,98733.13
2023-04-16T01:19:39.829Z,98737.31
2023-04-16T01:22:07.382Z,98740.41
2023-04-16T01:24:35.664Z,98748.91
2023-04-16T01:27:03.099Z,98743.59
2023-04-16T01:29:30.413Z,98741.31
2023-04-16T01:31:59.396Z,98742.03
2023-04-16T01:34:30.965Z,98751.34
2023-04-16T01:36:58.802Z,98757.22
2023-04-16T01:39:26.036Z,98755.38
2023-04-16T01:41:53.109Z,98750.75
2023-04-16T01:44:21.792Z,98756.59
2023-04-16T01:46:49.947Z,98754.53
2023-04-16T01:49:18.007Z,98753.44
2023-04-16T01:51:45.735Z,98757.56
2023-04-16T01:54:13.141Z,98751.19
2023-04-16T01:56:40.270Z,98754.06
2023-04-16T01:59:07.942Z,98755.75
2023-04-16T02:01:40.525Z,98753.34
2023-04-16T02:04:13.304Z,98749.06
2023-04-16T02:06:41.710Z,98752.91
2023-04-16T02:09:09.674Z,98755.66
2023-04-16T02:11:38.617Z,98750.81
2023-04-16T02:14:05.816Z,98745.38
2023-04-16T02:16:33.075Z,98750.72
2023-04-16T02:19:10.063Z,98744.81
2023-04-16T02:21:38.353Z,98743.69
2023-04-16T02:24:06.597Z,98750.66
2023-04-16T02:26:34.910Z,98739.81
2023-04-16T02:29:07.224Z,98751.66
2023-04-16T02:31:41.681Z,98752.84
2023-04-16T02:34:12.827Z,98756.09
2023-04-16T02:36:41.913Z,98761.81
2023-04-16T02:39:09.255Z,98757.75
2023-04-16T02:41:38.525Z,98758.56
2023-04-16T02:44:06.596Z,98761.03
2023-04-16T02:46:33.765Z,98760.78
2023-04-16T02:49:01.423Z,98761.44
2023-04-16T02:51:30.186Z,98761.00
2023-04-16T02:53:57.432Z,98757.59
2023-04-16T02:56:24.677Z,98750.84
2023-04-16T02:58:52.445Z,98767.19
2023-04-16T03:01:19.777Z,98758.97
2023-04-16T03:03:47.438Z,98768.75
2023-04-16T03:06:15.323Z,98772.16
2023-04-16T03:08:42.753Z,98769.22
2023-04-16T03:11:10.064Z,98770.16
2023-04-16T03:13:37.258Z,98767.09
2023-04-16T03:16:04.910Z,98768.47
2023-04-16T03:18:32.193Z,98765.75
2023-04-16T03:20:59.549Z,98769.78
2023-04-16T03:26:23.493Z,98769.59
2023-04-16T03:28:51.555Z,98777.22
2023-04-16T03:31:18.840Z,98775.44
2023-04-16T03:33:46.789Z,98775.31
2023-04-16T03:36:14.612Z,98784.38
2023-04-16T03:38:42.549Z,98783.66
2023-04-16T03:41:10.032Z,98776.81
2023-04-16T03:43:37.777Z,98786.31
2023-04-16T03:46:05.883Z,98783.69
2023-04-16T03:48:33.289Z,98785.13
2023-04-16T03:51:01.077Z,98788.78
2023-04-16T03:53:29.373Z,98787.03
2023-04-16T03:55:56.624Z,98782.91
2023-04-16T03:58:24.507Z,98789.16
2023-04-16T04:00:55.998Z,98783.75
2023-04-16T04:03:23.787Z,98787.09
2023-04-16T04:05:51.739Z,98785.09
2023-04-16T04:08:26.200Z,98780.06
2023-04-16T04:10:54.205Z,98788.03
2023-04-16T04:13:23.575Z,98795.72
2023-04-16T04:15:52.502Z,98797.94
2023-04-16T04:18:22.521Z,98793.19
2023-04-16T04:20:51.652Z,98797.09
2023-04-16T04:23:21.462Z,98797.63
2023-04-16T04:25:48.772Z,98807.13
2023-04-16T04:28:15.920Z,98798.91
2023-04-16T04:30:43.251Z,98811.69
2023-04-16T04:33:11.324Z,98813.88
2023-04-16T04:35:39.696Z,98816.78
2023-04-16T04:38:09.315Z,98826.88
2023-04-16T04:40:36.478Z,98818.78
2023-04-16T04:43:05.032Z,98820.75
2023-04-16T04:45:33.965Z,98817.31
2023-04-16T04:48:01.162Z,98826.03
2023-04-16T04:50:29.741Z,98830.47
2023-04-16T04:52:58.066Z,98834.06
2023-04-16T04:55:25.692Z,98832.06
2023-04-16T04:57:52.848Z,98839.28
2023-04-16T05:00:20.903Z,98850.41
2023-04-16T05:02:53.703Z,98836.53
2023-04-16T05:05:21.503Z,98839.97
2023-04-16T05:07:48.816Z,98839.28
2023-04-16T05:10:16.258Z,98849.28
2023-04-16T05:12:43.456Z,98846.03
2023-04-16T05:15:11.162Z,98860.38
2023-04-16T05:17:38.367Z,98863.16
2023-04-16T05:20:09.310Z,98863.56
2023-04-16T05:22:36.861Z,98862.28
2023-04-16T05:25:05.646Z,98861.09
2023-04-16T05:27:33.447Z,98872.47
2023-04-16T05:30:00.663Z,98878.00
2023-04-16T05:32:28.017Z,98869.94
2023-04-16T05:34:56.262Z,98885.34
2023-04-16T05:37:24.004Z,98880.56
2023-04-16T05:39:51.375Z,98883.47
2023-04-16T05:42:18.576Z,98877.19
2023-04-16T05:44:45.758Z,98882.94
2023-04-16T05:47:12.963Z,98886.72
2023-04-16T05:49:40.076Z,98885.25
2023-04-16T05:52:07.560Z,98890.53
2023-04-16T05:54:34.876Z,98895.56
2023-04-16T05:57:02.383Z,98890.25
2023-04-16T05:59:31.017Z,98900.59
2023-04-16T06:01:58.658Z,98906.41
2023-04-16T06:04:26.268Z,98899.03
2023-04-16T06:06:53.702Z,98905.63
2023-04-16T06:09:20.794Z,98902.97
2023-04-16T06:11:48.497Z,98905.22
2023-04-16T06:14:15.614Z,98900.72
2023-04-16T06:16:42.879Z,98909.03
2023-04-16T06:19:10.203Z,98912.38
2023-04-16T06:21:38.233Z,98903.31
2023-04-16T06:24:06.146Z,98913.97
2023-04-16T06:26:33.301Z,98916.69
2023-04-16T06:29:01.068Z,98913.41
2023-04-16T06:31:28.479Z,98910.59
2023-04-16T06:33:55.862Z,98913.09
2023-04-16T06:36:23.107Z,98912.16
2023-04-16T06:38:51.829Z,98908.56
2023-04-16T06:41:19.116Z,98912.16
2023-04-16T06:43:47.086Z,98917.53
2023-04-16T06:46:15.115Z,98917.28
2023-04-16T06:48:42.556Z,98916.53
2023-04-16T06:51:10.096Z,98918.97
2023-04-16T06:53:37.981Z,98921.16
2023-04-16T06:56:06.058Z,98919.78
2023-04-16T06:58:33.426Z,98924.00
2023-04-16T07:01:02.687Z,98926.44
2023-04-16T07:03:30.483Z,98923.84
2023-04-16T07:05:58.221Z,98926.56
2023-04-16T07:08:25.674Z,98936.97
2023-04-16T07:10:53.884Z,98936.97
2023-04-16T07:13:21.670Z,98931.09
2023-04-16T07:15:49.468Z,98932.38
2023-04-16T07:18:17.026Z,98940.25
2023-04-16T07:20:44.952Z,98940.09
2023-04-16T07:23:12.389Z,98939.16
2023-04-16T07:25:40.214Z,98941.00
2023-04-16T07:28:07.495Z,98936.13
2023-04-16T07:30:35.692Z,98942.72
2023-04-16T07:33:06.472Z,98947.28
2023-04-16T07:35:33.746Z,98946.28
2023-04-16T07:38:00.836Z,98947.50
2023-04-16T07:40:28.092Z,98951.38
2023-04-16T07:42:56.373Z,98959.69
2023-04-16T07:45:24.607Z,98958.38
2023-04-16T07:47:52.023Z,98965.06
2023-04-16T07:50:19.814Z,98959.16
2023-04-16T07:52:47.920Z,98950.50
2023-04-16T07:55:15.299Z,98962.16
2023-04-16T07:57:42.544Z,98969.19
2023-04-16T08:00:11.266Z,98967.53
2023-04-16T08:02:42.985Z,98969.97
2023-04-16T08:05:12.538Z,98978.00
2023-04-16T08:07:45.771Z,98975.25
2023-04-16T08:10:13.073Z,98974.34
2023-04-16T08:12:40.719Z,98979.53
2023-04-16T08:15:08.783Z,98984.47
2023-04-16T08:17:37.731Z,98988.19
2023-04-16T08:20:14.955Z,98985.53
2023-04-16T08:22:46.660Z,98992.19
2023-04-16T08:25:15.124Z,99001.13
2023-04-16T08:27:42.314Z,98999.19
2023-04-16T08:30:09.784Z,99008.38
2023-04-16T08:32:37.149Z,99013.13
2023-04-16T08:35:05.069Z,99010.03
2023-04-16T08:37:32.976Z,99017.00
2023-04-16T08:40:01.008Z,99023.09
2023-04-16T08:42:41.406Z,99015.38
2023-04-16T08:45:15.451Z,99022.81
2023-04-16T08:47:51.049Z,99024.53
2023-04-16T08:50:26.975Z,99015.41
2023-04-16T08:53:05.237Z,99024.66
2023-04-16T08:55:49.208Z,99023.63
2023-04-16T08:58:22.456Z,99018.72
2023-04-16T09:00:50.624Z,99026.41
2023-04-16T09:03:21.615Z,99027.13
2023-04-16T09:05:51.576Z,99026.19
2023-04-16T09:08:20.642Z,99022.03
2023-04-16T09:10:49.509Z,99030.56
2023-04-16T09:13:20.431Z,99031.25
2023-04-16T09:15:53.488Z,99035.47
2023-04-16T09:18:21.255Z,99035.13
2023-04-16T09:20:59.316Z,99039.59
2023-04-16T09:23:32.628Z,99045.72
2023-04-16T09:26:00.974Z,99044.63
2023-04-16T09:28:50.787Z,99045.88
2023-04-16T09:31:19.813Z,99044.56
2023-04-16T09:34:14.294Z,99047.69
2023-04-16T09:36:41.846Z,99050.47
2023-04-16T09:39:22.612Z,99044.13
2023-04-16T09:41:54.888Z,99055.88
2023-04-16T09:44:42.074Z,99053.94
2023-04-16T09:47:10.876Z,99066.19
2023-04-16T09:49:43.489Z,99062.69
2023-04-16T09:52:21.672Z,99061.78
2023-04-16T09:54:55.274Z,99062.78
2023-04-16T09:57:26.180Z,99079.47
2023-04-16T10:00:02.177Z,99068.28
2023-04-16T10:02:34.660Z,99069.28
2023-04-16T10:05:08.246Z,99065.22
2023-04-16T10:07:39.551Z,99074.44
2023-04-16T10:10:08.265Z,99074.34
2023-04-16T10:12:35.939Z,99083.34
2023-04-16T10:15:03.864Z,99088.09
2023-04-16T10:17:32.347Z,99075.63
2023-04-16T10:20:02.670Z,99084.22
2023-04-16T10:22:30.285Z,99086.06
2023-04-16T10:24:59.253Z,99083.91
2023-04-16T10:27:28.661Z,99081.00
2023-04-16T10:30:00.549Z,99082.47
2023-04-16T10:32:28.866Z,99085.53
2023-04-16T10:34:57.011Z,99088.88
2023-04-16T10:37:32.854Z,99090.47
2023-04-16T10:40:00.880Z,99089.47
2023-04-16T10:42:32.021Z,99082.53
2023-04-16T10:45:00.681Z,99099.22
2023-04-16T10:47:29.693Z,99088.28
2023-04-16T10:49:59.062Z,99090.97
2023-04-16T10:52:30.419Z,99093.34
2023-04-16T10:55:00.978Z,99094.41
2023-04-16T10:57:30.302Z,99087.94
2023-04-16T10:59:59.383Z,99090.00
2023-04-16T11:02:29.779Z,99089.44
2023-04-16T11:04:58.884Z,99093.84
2023-04-16T11:07:35.357Z,99097.09
2023-04-16T11:10:08.158Z,99094.69
2023-04-16T11:12:56.419Z,99098.59
2023-04-16T11:15:28.271Z,99103.81
2023-04-16T11:17:59.482Z,99105.47
2023-04-16T11:20:31.848Z,99098.06
2023-04-16T11:23:16.893Z,99099.06
2023-04-16T11:25:57.478Z,99105.06
2023-04-16T11:28:36.865Z,99107.91
2023-04-16T11:31:12.754Z,99098.38
2023-04-16T11:33:40.071Z,99107.56
2023-04-16T11:36:07.696Z,99109.34
2023-04-16T11:38:42.998Z,99102.47
2023-04-16T11:41:11.216Z,99112.41
2023-04-16T11:43:38.564Z,99117.38
2023-04-16T11:46:16.732Z,99115.25
2023-04-16T11:48:55.418Z,99115.59
2023-04-16T11:51:23.634Z,99116.38
2023-04-16T11:53:54.005Z,99111.06
2023-04-16T11:56:34.461Z,99110.91
2023-04-16T11:59:21.097Z,99107.59
2023-04-16T12:01:52.647Z,99108.28
2023-04-16T12:04:26.949Z,99114.13
2023-04-16T12:07:14.863Z,99117.88
2023-04-16T12:09:44.020Z,99117.41
2023-04-16T12:12:32.498Z,99121.09
2023-04-16T12:15:04.147Z,99120.22
2023-04-16T12:17:36.807Z,99119.09
2023-04-16T12:20:15.853Z,99122.09
2023-04-16T12:22:49.645Z,99117.47
2023-04-16T12:25:18.535Z,99125.25
2023-04-16T12:27:53.811Z,99127.94
2023-04-16T12:30:26.822Z,99128.63
2023-04-16T12:33:18.435Z,99125.50
2023-04-16T12:35:46.359Z,99125.16
2023-04-16T12:38:15.330Z,99130.91
2023-04-16T12:40:43.721Z,99126.56
2023-04-16T12:43:12.267Z,99126.59
2023-04-16T12:45:40.937Z,99124.97
2023-04-16T12:48:08.486Z,99131.25
2023-04-16T12:50:36.255Z,99117.44
2023-04-16T12:53:04.078Z,99117.81
2023-04-16T12:55:31.346Z,99116.13
2023-04-16T12:57:58.454Z,99126.44
2023-04-16T13:00:25.888Z,99117.88
2023-04-16T13:02:53.684Z,99127.13
2023-04-16T13:05:21.701Z,99124.56
2023-04-16T13:07:49.102Z,99119.50
2023-04-16T13:10:16.699Z,99118.06
2023-04-16T13:12:44.419Z,99128.19
2023-04-16T13:15:12.141Z,99126.56
2023-04-16T13:17:39.623Z,99125.00
2023-04-16T13:20:07.880Z,99126.47
2023-04-16T13:22:35.406Z,99123.47
2023-04-16T13:25:03.757Z,99123.22
2023-04-16T13:27:32.110Z,99125.94
2023-04-16T13:30:00.873Z,99120.38
2023-04-16T13:32:28.837Z,99128.97
2023-04-16T13:34:56.054Z,99124.25
2023-04-16T13:37:23.257Z,99125.91
2023-04-16T13:39:50.506Z,99126.63
2023-04-16T13:42:17.823Z,99133.22
2023-04-16T13:44:48.733Z,99126.94
2023-04-16T13:47:16.673Z,99132.34
2023-04-16T13:49:44.131Z,99139.34
2023-04-16T13:52:11.718Z,99129.66
2023-04-16T13:54:40.272Z,99134.44
2023-04-16T13:57:07.634Z,99134.78
2023-04-16T13:59:35.236Z,99131.22
2023-04-16T14:02:02.873Z,99134.16
2023-04-16T14:04:31.232Z,99130.78
2023-04-16T14:06:58.922Z,99128.03
2023-04-16T14:09:26.625Z,99129.66
2023-04-16T14:11:55.101Z,99128.88
2023-04-16T14:14:22.382Z,99128.34
2023-04-16T14:16:50.871Z,99119.09
2023-04-16T14:19:18.377Z,99125.13
2023-04-16T14:21:45.748Z,99133.06
2023-04-16T14:24:13.143Z,99129.72
2023-04-16T14:26:44.402Z,99121.09
2023-04-16T14:29:11.915Z,99133.47
2023-04-16T14:31:39.787Z,99130.59
2023-04-16T14:34:12.598Z,99133.09
2023-04-16T14:36:40.802Z,99131.94
2023-04-16T14:39:08.963Z,99138.69
2023-04-16T14:41:36.686Z,99124.81
2023-04-16T14:44:06.048Z,99130.31
2023-04-16T14:46:33.892Z,99131.28
2023-04-16T14:49:06.400Z,99134.66
2023-04-16T14:51:33.941Z,99130.22
2023-04-16T14:54:01.796Z,99138.56
2023-04-16T14:56:30.801Z,99139.16
2023-04-16T14:58:58.388Z,99131.44
2023-04-16T15:01:26.134Z,99133.19
2023-04-16T15:03:56.594Z,99143.66
2023-04-16T15:06:24.290Z,99141.16
2023-04-16T15:08:52.810Z,99130.91
2023-04-16T15:11:20.378Z,99132.31
2023-04-16T15:13:47.680Z,99145.84
2023-04-16T15:16:15.590Z,99134.66
2023-04-16T15:18:43.188Z,99132.66
2023-04-16T15:21:12.461Z,99136.78
2023-04-16T15:24:06.418Z,99133.22
2023-04-16T15:26:33.885Z,99128.22
2023-04-16T15:29:06.843Z,99136.78
2023-04-16T15:31:42.477Z,99137.19
2023-04-16T15:34:13.493Z,99135.03
2023-04-16T15:36:41.893Z,99140.34
2023-04-16T15:39:09.867Z,99144.22
2023-04-16T15:41:50.189Z,99133.97
2023-04-16T15:44:26.212Z,99141.56
2023-04-16T15:47:08.715Z,99142.09
2023-04-16T15:49:39.512Z,99148.31
2023-04-16T15:52:07.127Z,99149.00
2023-04-16T15:54:34.819Z,99154.94
2023-04-16T15:57:02.169Z,99141.72
2023-04-16T15:59:29.844Z,99146.91
2023-04-16T16:01:57.424Z,99147.94
2023-04-16T16:04:26.701Z,99148.03
2023-04-16T16:06:54.387Z,99146.78
2023-04-16T16:09:26.246Z,99148.81
2023-04-16T16:11:54.530Z,99153.91
2023-04-16T16:14:22.944Z,99157.75
2023-04-16T16:16:51.263Z,99158.75
2023-04-16T16:19:18.762Z,99150.50
2023-04-16T16:21:46.150Z,99160.25
2023-04-16T16:24:14.002Z,99166.59
2023-04-16T16:26:41.508Z,99165.31
2023-04-16T16:29:09.274Z,99163.91
2023-04-16T16:31:36.925Z,99157.34
2023-04-16T16:34:19.984Z,99167.97
2023-04-16T16:36:48.898Z,99161.44
2023-04-16T16:39:16.534Z,99169.91
2023-04-16T16:41:45.013Z,99172.47
2023-04-16T16:44:12.279Z,99166.63
2023-04-16T16:46:39.782Z,99168.84
2023-04-16T16:49:09.548Z,99167.84
2023-04-16T16:51:37.490Z,99166.94
2023-04-16T16:54:08.338Z,99173.53
2023-04-16T16:56:35.703Z,99167.34
2023-04-16T16:59:04.747Z,99171.38
2023-04-16T17:01:39.224Z,99175.94
2023-04-16T17:04:08.022Z,99177.28
2023-04-16T17:06:35.790Z,99175.53
2023-04-16T17:09:05.546Z,99172.84
2023-04-16T17:11:33.098Z,99171.09
2023-04-16T17:14:00.448Z,99175.38
2023-04-16T17:16:27.736Z,99167.56
2023-04-16T17:18:55.735Z,99171.53
2023-04-16T17:21:22.939Z,99180.56
2023-04-16T17:23:50.577Z,99175.59
2023-04-16T17:26:24.207Z,99173.50
2023-04-16T17:28:51.559Z,99176.63
2023-04-16T17:31:18.970Z,99177.13
2023-04-16T17:33:46.509Z,99175.75
2023-04-16T17:36:14.075Z,99180.59
2023-04-16T17:38:43.627Z,99182.56
2023-04-16T17:41:12.621Z,99189.41
2023-04-16T17:43:39.879Z,99195.91
2023-04-16T17:46:11.849Z,99186.41
2023-04-16T17:48:39.523Z,99192.34
2023-04-16T17:51:16.378Z,99194.47
2023-04-16T17:53:44.728Z,99196.53
2023-04-16T17:56:14.641Z,99190.28
2023-04-16T17:58:41.881Z,99197.16
2023-04-16T18:01:09.476Z,99198.41
2023-04-16T18:03:39.975Z,99193.28
2023-04-16T18:06:07.444Z,99196.06
2023-04-16T18:08:36.925Z,99196.78
2023-04-16T18:11:08.557Z,99202.63
2023-04-16T18:13:36.205Z,99210.88
2023-04-16T18:16:03.573Z,99202.63
2023-04-16T18:18:30.995Z,99203.72
2023-04-16T18:20:58.245Z,99210.69
2023-04-16T18:23:25.448Z,99209.41
2023-04-16T18:25:53.086Z,99217.75
2023-04-16T18:28:21.286Z,99210.31
2023-04-16T18:35:48.196Z,99221.97
2023-04-16T18:38:16.060Z,99221.38
2023-04-16T18:40:43.631Z,99221.25
2023-04-16T18:43:11.115Z,99225.72
2023-04-16T18:45:38.396Z,99228.41
2023-04-16T18:48:06.086Z,99230.06
2023-04-16T18:50:33.718Z,99234.53
2023-04-16T18:53:01.326Z,99234.28
2023-04-16T18:55:30.049Z,99239.84
2023-04-16T18:57:57.728Z,99239.75
2023-04-16T19:00:25.082Z,99241.59
2023-04-16T19:02:52.782Z,99246.03
2023-04-16T19:05:22.947Z,99237.44
2023-04-16T19:07:51.078Z,99247.75
2023-04-16T19:10:18.880Z,99259.25
2023-04-16T19:12:57.008Z,99251.09
2023-04-16T19:15:24.666Z,99252.44
2023-04-16T19:17:52.241Z,99259.47
2023-04-16T19:20:23.068Z,99253.09
2023-04-16T19:22:51.438Z,99253.91
2023-04-16T19:25:19.092Z,99260.78
2023-04-16T19:27:46.471Z,99257.78
2023-04-16T19:30:14.756Z,99260.47
2023-04-16T19:32:42.597Z,99258.13
2023-04-16T19:35:11.306Z,99266.03
2023-04-16T19:37:39.582Z,99259.75
2023-04-16T19:40:08.719Z,99254.41
2023-04-16T19:42:36.825Z,99259.84
2023-04-16T19:45:04.955Z,99266.34
2023-04-16T19:47:33.000Z,99264.28
2023-04-16T19:50:02.229Z,99265.75
2023-04-16T19:52:29.996Z,99270.81
2023-04-16T19:54:57.406Z,99276.16
2023-04-16T19:57:24.700Z,99271.31
2023-04-16T19:59:54.042Z,99272.94
2023-04-16T20:02:22.811Z,99268.31
2023-04-16T20:04:50.825Z,99269.00
2023-04-16T20:07:18.553Z,99275.56
2023-04-16T20:09:46.149Z,99272.25
2023-04-16T20:12:13.374Z,99278.34
2023-04-16T20:14:41.909Z,99265.53
2023-04-16T20:17:22.400Z,99277.16
2023-04-16T20:19:52.784Z,99271.13
2023-04-16T20:22:20.224Z,99271.84
2023-04-16T20:24:48.375Z,99270.03
2023-04-16T20:27:17.035Z,99274.25
2023-04-16T20:29:44.265Z,99276.16
2023-04-16T20:32:12.258Z,99271.78
2023-04-16T20:34:40.673Z,99270.38
2023-04-16T20:37:12.381Z,99271.59
2023-04-16T20:39:40.768Z,99272.44
2023-04-16T20:42:11.911Z,99269.78
2023-04-16T20:44:42.512Z,99265.78
2023-04-16T20:47:15.394Z,99266.75
2023-04-16T20:49:47.329Z,99275.19
2023-04-16T20:52:16.541Z,99264.72
2023-04-16T20:54:44.573Z,99261.31
2023-04-16T20:57:12.290Z,99263.13
2023-04-16T20:59:39.864Z,99266.13
2023-04-16T21:02:08.385Z,99261.66
2023-04-16T21:04:36.162Z,99257.22
2023-04-16T21:07:04.346Z,99259.75
2023-04-16T21:09:31.983Z,99262.28
2023-04-16T21:11:59.477Z,99255.41
2023-04-16T21:14:27.064Z,99260.72
2023-04-16T21:16:57.202Z,99259.13
2023-04-16T21:19:25.015Z,99250.78
2023-04-16T21:21:52.426Z,99256.97
2023-04-16T21:24:20.399Z,99257.56
2023-04-16T21:26:48.392Z,99261.56
2023-04-16T21:29:15.997Z,99261.06
2023-04-16T21:31:43.325Z,99266.16
2023-04-16T21:34:13.389Z,99260.50
2023-04-16T21:36:41.074Z,99262.78
2023-04-16T21:39:08.807Z,99264.22
2023-04-16T21:41:37.778Z,99262.50
2023-04-16T21:44:05.580Z,99260.25
2023-04-16T21:46:33.800Z,99271.47
2023-04-16T21:49:01.361Z,99260.94
2023-04-16T21:51:31.850Z,99266.13
2023-04-16T21:53:59.552Z,99264.84
2023-04-16T21:56:29.203Z,99269.66
2023-04-16T21:58:56.875Z,99262.78
2023-04-16T22:01:24.568Z,99264.34
2023-04-16T22:03:55.367Z,99263.38
2023-04-16T22:06:28.432Z,99258.28
2023-04-16T22:08:58.876Z,99258.16
2023-04-16T22:11:26.570Z,99255.00
2023-04-16T22:13:57.665Z,99258.28
2023-04-16T22:16:25.692Z,99260.00
2023-04-16T22:18:55.000Z,99260.66
2023-04-16T22:21:22.459Z,99262.72
2023-04-16T22:23:57.376Z,99258.13
2023-04-16T22:26:25.047Z,99252.59
2023-04-16T22:28:52.315Z,99258.38
2023-04-16T22:31:19.922Z,99259.09
2023-04-16T22:33:47.189Z,99257.41
2023-04-16T22:36:14.428Z,99253.91
2023-04-16T22:38:41.740Z,99248.50
2023-04-16T22:41:09.045Z,99246.66
2023-04-16T22:43:37.197Z,99248.72
2023-04-16T22:46:08.122Z,99260.34
2023-04-16T22:48:38.733Z,99242.34
2023-04-16T22:51:09.161Z,99250.78
2023-04-16T22:53:36.946Z,99245.22
2023-04-16T22:56:07.194Z,99250.91
2023-04-16T22:58:34.785Z,99242.78
2023-04-16T23:01:02.384Z,99241.25
2023-04-16T23:03:29.954Z,99240.38
2023-04-16T23:05:57.211Z,99240.44
2023-04-16T23:08:24.495Z,99246.31
2023-04-16T23:10:51.991Z,99249.59
2023-04-16T23:13:19.349Z,99250.03
2023-04-16T23:15:49.316Z,99251.75
2023-04-16T23:18:17.002Z,99250.53
2023-04-16T23:20:44.750Z,99247.41
2023-04-16T23:23:12.329Z,99248.78
2023-04-16T23:25:42.865Z,99245.59
2023-04-16T23:28:13.838Z,99247.22
2023-04-16T23:30:53.113Z,99244.44
2023-04-16T23:33:21.079Z,99238.00
2023-04-16T23:35:48.485Z,99240.91
2023-04-16T23:38:16.405Z,99236.19
2023-04-16T23:40:43.574Z,99243.56
2023-04-16T23:43:15.591Z,99238.63
2023-04-16T23:45:43.085Z,99244.03
2023-04-16T23:48:10.426Z,99240.44
2023-04-16T23:50:37.716Z,99232.69
2023-04-16T23:53:04.913Z,99235.19
2023-04-16T23:55:32.157Z,99236.06
2023-04-16T23:57:59.431Z,99237.66
